createdAt,value
2018-09-01T00:00:55.892Z,16.10
2018-09-01T00:03:24.220Z,16.10
2018-09-01T00:05:52.540Z,16.10
2018-09-01T00:08:21.874Z,16.10
2018-09-01T00:10:50.348Z,15.60
2018-09-01T00:13:18.668Z,15.30
2018-09-01T00:15:47.000Z,15.10
2018-09-01T00:18:15.324Z,14.60
2018-09-01T00:20:43.628Z,14.70
2018-09-01T00:23:11.995Z,14.70
2018-09-01T00:25:40.309Z,14.70
2018-09-01T00:28:08.620Z,14.90
2018-09-01T00:30:36.976Z,15.20
2018-09-01T00:33:05.267Z,15.50
2018-09-01T00:35:33.571Z,15.70
2018-09-01T00:38:07.449Z,15.80
2018-09-01T00:40:35.759Z,15.80
2018-09-01T00:43:04.081Z,15.60
2018-09-01T00:45:32.376Z,15.20
2018-09-01T00:48:00.704Z,15.20
2018-09-01T00:50:29.021Z,15.20
2018-09-01T00:52:57.341Z,15.40
2018-09-01T00:55:31.036Z,15.50
2018-09-01T00:57:59.739Z,15.30
2018-09-01T01:00:28.045Z,15.20
2018-09-01T01:02:56.372Z,15.20
2018-09-01T01:05:24.696Z,15.20
2018-09-01T01:07:53.036Z,15.20
2018-09-01T01:10:21.332Z,15.10
2018-09-01T01:12:49.893Z,15.00
2018-09-01T01:15:18.672Z,14.80
2018-09-01T01:17:47.016Z,14.70
2018-09-01T01:20:15.328Z,14.50
2018-09-01T01:22:43.668Z,14.20
2018-09-01T01:25:11.988Z,13.90
2018-09-01T01:27:40.315Z,13.90
2018-09-01T01:30:08.621Z,13.50
2018-09-01T01:32:37.125Z,13.10
2018-09-01T01:35:05.437Z,13.20
2018-09-01T01:37:35.340Z,13.20
2018-09-01T01:40:04.428Z,13.00
2018-09-01T01:42:33.152Z,12.90
2018-09-01T01:45:01.448Z,12.90
2018-09-01T01:47:29.783Z,12.80
2018-09-01T01:49:58.340Z,12.80
2018-09-01T01:52:26.659Z,13.30
2018-09-01T01:54:54.970Z,13.80
2018-09-01T01:57:23.291Z,14.40
2018-09-01T01:59:51.600Z,14.50
2018-09-01T02:02:19.936Z,14.20
2018-09-01T02:04:48.260Z,14.00
2018-09-01T02:07:16.576Z,13.60
2018-09-01T02:09:44.898Z,13.70
2018-09-01T02:12:13.220Z,13.60
2018-09-01T02:14:41.528Z,13.50
2018-09-01T02:17:09.892Z,13.20
2018-09-01T02:19:38.212Z,12.80
2018-09-01T02:22:06.509Z,12.70
2018-09-01T02:24:34.829Z,12.30
2018-09-01T02:27:03.128Z,12.20
2018-09-01T02:29:31.452Z,12.30
2018-09-01T02:31:59.784Z,12.50
2018-09-01T02:34:28.108Z,13.00
2018-09-01T02:36:56.424Z,13.40
2018-09-01T02:39:24.757Z,13.60
2018-09-01T02:41:53.140Z,13.90
2018-09-01T02:44:21.480Z,13.70
2018-09-01T02:46:49.772Z,13.80
2018-09-01T02:49:18.084Z,13.60
2018-09-01T02:51:46.392Z,13.10
2018-09-01T02:54:14.748Z,13.20
2018-09-01T02:56:43.057Z,13.00
2018-09-01T02:59:11.435Z,13.40
2018-09-01T03:01:39.746Z,13.70
2018-09-01T03:04:08.328Z,14.00
2018-09-01T03:06:58.412Z,14.00
2018-09-01T03:09:26.816Z,14.10
2018-09-01T03:11:56.320Z,14.40
2018-09-01T03:14:25.568Z,14.70
2018-09-01T03:16:54.745Z,14.60
2018-09-01T03:19:23.568Z,14.10
2018-09-01T03:21:51.869Z,14.10
2018-09-01T03:24:20.189Z,13.80
2018-09-01T03:26:48.504Z,13.00
2018-09-01T03:29:16.831Z,12.90
2018-09-01T03:31:45.128Z,12.90
2018-09-01T03:34:13.444Z,12.40
2018-09-01T03:36:41.756Z,12.00
2018-09-01T03:39:10.096Z,11.80
2018-09-01T03:41:39.280Z,11.40
2018-09-01T03:44:07.788Z,11.90
2018-09-01T03:46:36.121Z,12.00
2018-09-01T03:49:05.904Z,11.80
2018-09-01T03:51:34.208Z,12.00
2018-09-01T03:54:02.535Z,12.10
2018-09-01T03:56:30.860Z,12.40
2018-09-01T03:58:59.185Z,12.80
2018-09-01T04:01:27.499Z,12.90
2018-09-01T04:03:55.820Z,13.10
2018-09-01T04:06:24.337Z,12.80
2018-09-01T04:08:52.789Z,12.30
2018-09-01T04:11:21.136Z,12.00
2018-09-01T04:13:49.556Z,11.60
2018-09-01T04:16:17.860Z,11.30
2018-09-01T04:18:46.197Z,11.10
2018-09-01T04:21:14.516Z,11.50
2018-09-01T04:23:42.836Z,11.40
2018-09-01T04:26:11.144Z,11.50
2018-09-01T04:28:39.471Z,11.50
2018-09-01T04:31:07.768Z,11.60
2018-09-01T04:33:36.116Z,12.10
2018-09-01T04:36:04.420Z,12.40
2018-09-01T04:38:32.757Z,12.70
2018-09-01T04:41:01.076Z,12.80
2018-09-01T04:43:29.416Z,12.60
2018-09-01T04:45:57.732Z,12.30
2018-09-01T04:48:26.052Z,12.10
2018-09-01T04:50:54.348Z,12.00
2018-09-01T04:53:22.683Z,12.00
2018-09-01T04:55:51.012Z,12.00
2018-09-01T04:58:19.315Z,12.30
2018-09-01T05:00:47.655Z,12.80
2018-09-01T05:03:15.964Z,12.60
2018-09-01T05:05:44.316Z,12.20
2018-09-01T05:08:12.622Z,12.20
2018-09-01T05:10:40.960Z,12.00
2018-09-01T05:13:09.262Z,11.50
2018-09-01T05:15:37.584Z,11.30
2018-09-01T05:18:05.908Z,12.00
2018-09-01T05:20:34.232Z,12.60
2018-09-01T05:23:02.531Z,13.10
2018-09-01T05:25:30.856Z,13.00
2018-09-01T05:27:59.159Z,12.50
2018-09-01T05:30:27.480Z,12.30
2018-09-01T05:32:55.791Z,12.60
2018-09-01T05:35:24.120Z,13.00
2018-09-01T05:37:52.415Z,13.00
2018-09-01T05:40:20.796Z,13.20
2018-09-01T05:42:49.099Z,13.10
2018-09-01T05:45:17.717Z,13.00
2018-09-01T05:47:46.029Z,12.70
2018-09-01T05:50:14.365Z,12.50
2018-09-01T05:52:42.705Z,12.30
2018-09-01T05:55:11.037Z,12.40
2018-09-01T05:57:39.585Z,12.60
2018-09-01T06:00:08.514Z,12.60
2018-09-01T06:02:39.724Z,12.50
2018-09-01T06:05:09.369Z,12.40
2018-09-01T06:07:38.328Z,12.30
2018-09-01T06:10:06.847Z,12.40
2018-09-01T06:12:35.594Z,12.40
2018-09-01T06:15:03.937Z,12.40
2018-09-01T06:17:32.263Z,12.20
2018-09-01T06:20:00.604Z,12.10
2018-09-01T06:22:28.908Z,12.10
2018-09-01T06:24:57.959Z,12.10
2018-09-01T06:27:29.929Z,12.20
2018-09-01T06:30:00.695Z,12.10
2018-09-01T06:32:29.072Z,12.00
2018-09-01T06:34:58.915Z,12.10
2018-09-01T06:37:27.359Z,12.10
2018-09-01T06:39:55.694Z,12.10
2018-09-01T06:42:24.043Z,12.10
2018-09-01T06:44:52.363Z,12.30
2018-09-01T06:47:20.994Z,12.30
2018-09-01T06:49:50.263Z,12.40
2018-09-01T06:52:18.609Z,12.30
2018-09-01T06:54:46.936Z,12.50
2018-09-01T06:57:15.236Z,12.60
2018-09-01T06:59:43.568Z,12.70
2018-09-01T07:02:11.952Z,12.90
2018-09-01T07:04:40.304Z,13.00
2018-09-01T07:07:08.636Z,13.10
2018-09-01T07:09:36.957Z,13.20
2018-09-01T07:12:05.268Z,13.20
2018-09-01T07:14:34.351Z,13.40
2018-09-01T07:17:02.655Z,13.50
2018-09-01T07:19:30.948Z,13.40
2018-09-01T07:21:59.263Z,13.20
2018-09-01T07:24:27.564Z,13.30
2018-09-01T07:26:55.883Z,13.30
2018-09-01T07:29:24.197Z,13.40
2018-09-01T07:31:52.533Z,13.60
2018-09-01T07:34:20.842Z,13.70
2018-09-01T07:36:49.511Z,13.90
2018-09-01T07:39:17.823Z,14.10
2018-09-01T07:41:46.146Z,14.30
2018-09-01T07:44:14.448Z,14.40
2018-09-01T07:46:42.773Z,14.40
2018-09-01T07:49:11.076Z,14.40
2018-09-01T07:51:39.484Z,14.50
2018-09-01T07:54:07.820Z,14.50
2018-09-01T07:56:36.193Z,14.60
2018-09-01T07:59:04.555Z,14.90
2018-09-01T08:01:32.879Z,15.00
2018-09-01T08:04:01.255Z,14.90
2018-09-01T08:06:29.589Z,14.80
2018-09-01T08:08:57.912Z,14.90
2018-09-01T08:11:26.240Z,14.90
2018-09-01T08:13:54.663Z,14.80
2018-09-01T08:16:22.888Z,14.70
2018-09-01T08:18:51.190Z,14.50
2018-09-01T08:21:19.517Z,14.60
2018-09-01T08:23:47.826Z,14.50
2018-09-01T08:26:16.146Z,14.50
2018-09-01T08:28:44.448Z,14.70
2018-09-01T08:31:12.773Z,15.00
2018-09-01T08:33:41.331Z,15.20
2018-09-01T08:36:09.624Z,15.10
2018-09-01T08:38:38.236Z,15.10
2018-09-01T08:41:06.557Z,15.10
2018-09-01T08:43:37.263Z,15.40
2018-09-01T08:46:05.884Z,15.60
2018-09-01T08:48:34.180Z,15.70
2018-09-01T08:51:02.499Z,15.60
2018-09-01T08:53:30.799Z,15.80
2018-09-01T08:55:59.124Z,15.70
2018-09-01T08:58:27.488Z,15.70
2018-09-01T09:00:55.801Z,15.90
2018-09-01T09:03:24.104Z,16.00
2018-09-01T09:05:52.459Z,16.10
2018-09-01T09:08:20.763Z,16.30
2018-09-01T09:10:49.084Z,16.40
2018-09-01T09:13:17.380Z,16.60
2018-09-01T09:15:45.695Z,16.60
2018-09-01T09:18:14.032Z,16.60
2018-09-01T09:20:42.589Z,16.60
2018-09-01T09:23:11.040Z,16.60
2018-09-01T09:25:39.359Z,16.70
2018-09-01T09:28:07.660Z,16.80
2018-09-01T09:30:35.996Z,16.80
2018-09-01T09:33:04.300Z,16.50
2018-09-01T09:35:32.606Z,16.50
2018-09-01T09:38:00.928Z,16.60
2018-09-01T09:40:29.235Z,16.90
2018-09-01T09:42:57.576Z,16.80
2018-09-01T09:45:25.891Z,16.70
2018-09-01T09:47:54.218Z,16.60
2018-09-01T09:50:22.525Z,16.20
2018-09-01T09:52:50.851Z,16.30
2018-09-01T09:55:19.259Z,16.50
2018-09-01T09:57:47.576Z,16.40
2018-09-01T10:00:19.925Z,16.60
2018-09-01T10:02:48.282Z,16.70
2018-09-01T10:05:16.650Z,16.50
2018-09-01T10:07:44.971Z,16.50
2018-09-01T10:10:13.288Z,16.60
2018-09-01T10:12:41.915Z,16.60
2018-09-01T10:15:10.219Z,16.50
2018-09-01T10:17:38.538Z,16.40
2018-09-01T10:20:06.962Z,16.40
2018-09-01T10:22:35.205Z,16.40
2018-09-01T10:25:03.504Z,16.60
2018-09-01T10:27:31.856Z,16.70
2018-09-01T10:30:00.156Z,16.60
2018-09-01T10:32:28.507Z,16.70
2018-09-01T10:34:56.809Z,16.60
2018-09-01T10:37:25.136Z,16.50
2018-09-01T10:39:53.439Z,16.60
2018-09-01T10:42:21.764Z,16.60
2018-09-01T10:44:50.072Z,16.60
2018-09-01T10:47:18.401Z,16.60
2018-09-01T10:49:46.701Z,16.40
2018-09-01T10:52:15.022Z,16.30
2018-09-01T10:54:43.316Z,16.20
2018-09-01T10:57:11.891Z,16.40
2018-09-01T10:59:40.488Z,16.40
2018-09-01T11:02:08.724Z,16.40
2018-09-01T11:04:37.296Z,16.30
2018-09-01T11:07:05.688Z,16.30
2018-09-01T11:09:34.008Z,16.30
2018-09-01T11:12:02.720Z,16.20
2018-09-01T11:14:31.025Z,16.20
2018-09-01T11:16:59.692Z,16.20
2018-09-01T11:19:28.000Z,16.30
2018-09-01T11:21:56.332Z,16.30
2018-09-01T11:24:24.741Z,16.40
2018-09-01T11:26:53.644Z,16.50
2018-09-01T11:29:22.760Z,16.50
2018-09-01T11:31:51.983Z,16.50
2018-09-01T11:34:20.367Z,16.50
2018-09-01T11:36:48.712Z,16.50
2018-09-01T11:39:17.012Z,16.50
2018-09-01T11:41:45.320Z,16.50
2018-09-01T11:44:13.919Z,16.50
2018-09-01T11:46:42.244Z,16.60
2018-09-01T11:49:10.897Z,16.60
2018-09-01T11:51:39.845Z,16.70
2018-09-01T11:54:09.306Z,16.80
2018-09-01T11:56:37.856Z,16.80
2018-09-01T11:59:06.436Z,16.80
2018-09-01T12:01:34.993Z,16.80
2018-09-01T12:04:03.652Z,16.80
2018-09-01T12:06:32.452Z,16.80
2018-09-01T12:09:01.799Z,16.70
2018-09-01T12:11:30.236Z,16.60
2018-09-01T12:13:58.600Z,16.50
2018-09-01T12:16:28.191Z,16.50
2018-09-01T12:18:56.556Z,16.60
2018-09-01T12:21:25.585Z,16.70
2018-09-01T12:23:54.129Z,16.70
2018-09-01T12:26:22.432Z,16.70
2018-09-01T12:28:50.752Z,16.70
2018-09-01T12:31:19.061Z,16.70
2018-09-01T12:33:47.391Z,16.80
2018-09-01T12:36:15.811Z,16.80
2018-09-01T12:38:44.124Z,16.80
2018-09-01T12:41:12.421Z,16.80
2018-09-01T12:43:40.736Z,16.80
2018-09-01T12:46:09.239Z,16.80
2018-09-01T12:48:37.563Z,16.80
2018-09-01T12:51:05.930Z,16.90
2018-09-01T12:53:34.248Z,16.90
2018-09-01T12:56:02.556Z,16.90
2018-09-01T12:58:30.940Z,17.00
2018-09-01T13:00:59.261Z,17.10
2018-09-01T13:03:27.616Z,17.20
2018-09-01T13:05:55.972Z,17.20
2018-09-01T13:08:24.308Z,17.20
2018-09-01T13:10:52.652Z,17.20
2018-09-01T13:13:20.983Z,17.00
2018-09-01T13:15:49.288Z,16.80
2018-09-01T13:18:17.596Z,16.70
2018-09-01T13:20:45.908Z,16.70
2018-09-01T13:23:14.231Z,16.80
2018-09-01T13:25:42.544Z,16.90
2018-09-01T13:28:10.870Z,17.00
2018-09-01T13:30:39.177Z,17.10
2018-09-01T13:33:07.496Z,17.10
2018-09-01T13:35:35.799Z,17.10
2018-09-01T13:38:04.121Z,17.20
2018-09-01T13:40:32.424Z,17.20
2018-09-01T13:43:00.844Z,17.20
2018-09-01T13:45:29.176Z,17.30
2018-09-01T13:47:57.489Z,17.40
2018-09-01T13:50:25.792Z,17.50
2018-09-01T13:52:54.111Z,17.30
2018-09-01T13:55:22.425Z,17.10
2018-09-01T13:57:50.741Z,17.20
2018-09-01T14:00:19.037Z,17.40
2018-09-01T14:02:47.376Z,17.50
2018-09-01T14:05:15.720Z,17.50
2018-09-01T14:10:18.631Z,17.70
2018-09-01T14:12:47.008Z,17.80
2018-09-01T14:15:15.300Z,17.80
2018-09-01T14:17:43.604Z,17.70
2018-09-01T14:20:11.988Z,17.70
2018-09-01T14:22:40.297Z,17.60
2018-09-01T14:25:08.630Z,17.60
2018-09-01T14:27:36.951Z,17.50
2018-09-01T14:30:05.744Z,17.40
2018-09-01T14:32:34.051Z,17.40
2018-09-01T14:35:02.420Z,17.40
2018-09-01T14:37:30.716Z,17.50
2018-09-01T14:39:59.032Z,17.50
2018-09-01T14:42:27.351Z,17.50
2018-09-01T14:44:56.015Z,17.70
2018-09-01T14:47:24.402Z,17.70
2018-09-01T14:49:52.696Z,17.80
2018-09-01T14:52:21.017Z,17.90
2018-09-01T14:54:49.444Z,17.90
2018-09-01T14:57:17.768Z,17.80
2018-09-01T14:59:46.660Z,17.70
2018-09-01T15:02:14.989Z,17.70
2018-09-01T15:04:43.324Z,17.70
2018-09-01T15:07:11.667Z,17.70
2018-09-01T15:09:40.009Z,17.60
2018-09-01T15:12:08.344Z,17.70
2018-09-01T15:14:36.683Z,17.70
2018-09-01T15:17:05.085Z,17.70
2018-09-01T15:19:33.440Z,17.70
2018-09-01T15:22:01.757Z,17.60
2018-09-01T15:24:30.104Z,17.70
2018-09-01T15:26:58.415Z,17.60
2018-09-01T15:29:26.832Z,17.50
2018-09-01T15:31:55.184Z,17.50
2018-09-01T15:34:23.518Z,17.50
2018-09-01T15:36:51.865Z,17.50
2018-09-01T15:39:20.197Z,17.50
2018-09-01T15:41:48.512Z,17.50
2018-09-01T15:44:17.129Z,17.50
2018-09-01T15:46:45.827Z,17.50
2018-09-01T15:49:14.995Z,17.60
2018-09-01T15:51:43.449Z,17.50
2018-09-01T15:54:11.814Z,17.50
2018-09-01T15:56:40.156Z,17.50
2018-09-01T15:59:08.505Z,17.40
2018-09-01T16:01:36.816Z,17.40
2018-09-01T16:04:05.454Z,17.40
2018-09-01T16:06:33.792Z,17.30
2018-09-01T16:09:02.127Z,17.20
2018-09-01T16:11:30.658Z,17.20
2018-09-01T16:13:59.005Z,17.20
2018-09-01T16:16:27.321Z,17.10
2018-09-01T16:18:55.661Z,17.10
2018-09-01T16:21:23.984Z,17.10
2018-09-01T16:23:52.332Z,17.10
2018-09-01T16:26:20.682Z,17.10
2018-09-01T16:28:49.101Z,17.10
2018-09-01T16:31:17.452Z,17.10
2018-09-01T16:33:45.921Z,17.00
2018-09-01T16:36:14.388Z,17.00
2018-09-01T16:38:42.704Z,17.00
2018-09-01T16:41:11.076Z,17.00
2018-09-01T16:43:39.446Z,17.00
2018-09-01T16:46:07.784Z,17.00
2018-09-01T16:48:36.105Z,17.00
2018-09-01T16:51:04.644Z,17.00
2018-09-01T16:53:33.156Z,17.00
2018-09-01T16:56:01.512Z,17.00
2018-09-01T16:58:29.888Z,17.10
2018-09-01T17:00:58.322Z,17.00
2018-09-01T17:03:26.685Z,17.00
2018-09-01T17:05:55.037Z,17.00
2018-09-01T17:08:23.348Z,16.90
2018-09-01T17:10:51.696Z,16.80
2018-09-01T17:13:20.028Z,16.70
2018-09-01T17:15:48.364Z,16.70
2018-09-01T17:18:16.689Z,16.70
2018-09-01T17:20:45.345Z,16.60
2018-09-01T17:23:13.705Z,16.60
2018-09-01T17:25:42.075Z,16.70
2018-09-01T17:28:10.390Z,16.60
2018-09-01T17:30:38.962Z,16.60
2018-09-01T17:33:07.665Z,16.60
2018-09-01T17:35:36.005Z,16.60
2018-09-01T17:38:04.320Z,16.60
2018-09-01T17:40:32.641Z,16.60
2018-09-01T17:43:00.957Z,16.60
2018-09-01T17:45:29.298Z,16.60
2018-09-01T17:47:57.616Z,16.60
2018-09-01T17:50:25.933Z,16.70
2018-09-01T17:52:55.080Z,16.60
2018-09-01T17:55:23.410Z,16.60
2018-09-01T17:57:51.748Z,16.60
2018-09-01T18:00:20.085Z,16.60
2018-09-01T18:02:48.428Z,16.60
2018-09-01T18:05:16.784Z,16.60
2018-09-01T18:07:45.109Z,16.60
2018-09-01T18:10:13.488Z,16.60
2018-09-01T18:12:42.040Z,16.50
2018-09-01T18:15:10.349Z,16.40
2018-09-01T18:17:38.688Z,16.40
2018-09-01T18:20:07.004Z,16.40
2018-09-01T18:22:35.337Z,16.30
2018-09-01T18:25:03.749Z,16.30
2018-09-01T18:27:32.098Z,16.20
2018-09-01T18:30:00.405Z,16.10
2018-09-01T18:32:28.742Z,16.10
2018-09-01T18:34:57.050Z,16.20
2018-09-01T18:37:25.385Z,16.20
2018-09-01T18:39:53.757Z,16.30
2018-09-01T18:42:22.345Z,16.30
2018-09-01T18:44:50.668Z,16.20
2018-09-01T18:47:19.027Z,16.10
2018-09-01T18:49:47.344Z,16.00
2018-09-01T18:52:15.700Z,16.00
2018-09-01T18:54:44.059Z,16.00
2018-09-01T18:57:12.416Z,16.10
2018-09-01T18:59:40.746Z,16.00
2018-09-01T19:02:09.084Z,16.00
2018-09-01T19:04:37.414Z,15.90
2018-09-01T19:07:05.784Z,15.90
2018-09-01T19:09:34.153Z,15.90
2018-09-01T19:12:02.502Z,16.00
2018-09-01T19:14:30.817Z,15.90
2018-09-01T19:16:59.146Z,15.80
2018-09-01T19:19:27.451Z,15.70
2018-09-01T19:21:55.784Z,15.70
2018-09-01T19:24:24.183Z,15.70
2018-09-01T19:26:52.526Z,15.70
2018-09-01T19:29:20.869Z,15.80
2018-09-01T19:31:49.464Z,15.90
2018-09-01T19:34:17.888Z,16.00
2018-09-01T19:36:46.248Z,16.20
2018-09-01T19:39:14.572Z,16.20
2018-09-01T19:41:43.645Z,16.20
2018-09-01T19:44:11.964Z,16.20
2018-09-01T19:46:40.518Z,16.20
2018-09-01T19:49:09.297Z,16.20
2018-09-01T19:51:37.630Z,16.30
2018-09-01T19:54:06.198Z,16.30
2018-09-01T19:56:34.606Z,16.20
2018-09-01T19:59:02.941Z,16.20
2018-09-01T20:01:31.296Z,16.10
2018-09-01T20:03:59.616Z,16.10
2018-09-01T20:06:27.947Z,16.20
2018-09-01T20:08:56.293Z,16.20
2018-09-01T20:11:24.623Z,16.00
2018-09-01T20:13:53.007Z,15.90
2018-09-01T20:16:21.363Z,15.90
2018-09-01T20:18:49.731Z,15.90
2018-09-01T20:21:18.052Z,16.00
2018-09-01T20:23:46.404Z,16.00
2018-09-01T20:26:14.861Z,16.10
2018-09-01T20:28:43.188Z,16.10
2018-09-01T20:31:11.611Z,16.10
2018-09-01T20:33:39.952Z,16.10
2018-09-01T20:36:13.688Z,16.10
2018-09-01T20:38:42.033Z,16.10
2018-09-01T20:41:10.346Z,16.10
2018-09-01T20:43:38.679Z,16.00
2018-09-01T20:46:07.184Z,16.00
2018-09-01T20:48:35.516Z,15.90
2018-09-01T20:51:03.836Z,15.90
2018-09-01T20:53:32.313Z,16.00
2018-09-01T20:56:00.628Z,16.00
2018-09-01T20:58:28.981Z,16.00
2018-09-01T21:00:57.316Z,15.90
2018-09-01T21:03:25.673Z,15.80
2018-09-01T21:05:54.013Z,15.90
2018-09-01T21:08:22.373Z,15.90
2018-09-01T21:10:50.704Z,15.90
2018-09-01T21:13:19.036Z,15.60
2018-09-01T21:15:47.361Z,15.60
2018-09-01T21:18:15.767Z,15.70
2018-09-01T21:20:44.092Z,15.90
2018-09-01T21:23:12.482Z,15.80
2018-09-01T21:25:40.786Z,15.80
2018-09-01T21:28:09.120Z,15.80
2018-09-01T21:30:37.440Z,15.80
2018-09-01T21:33:05.821Z,15.80
2018-09-01T21:35:34.199Z,15.90
2018-09-01T21:38:02.528Z,15.90
2018-09-01T21:40:30.863Z,15.80
2018-09-01T21:42:59.326Z,15.60
2018-09-01T21:45:27.644Z,15.60
2018-09-01T21:47:55.978Z,15.60
2018-09-01T21:50:24.313Z,15.60
2018-09-01T21:52:52.657Z,15.70
2018-09-01T21:55:20.972Z,15.70
2018-09-01T21:57:49.312Z,15.80
2018-09-01T22:00:17.647Z,15.80
2018-09-01T22:02:46.248Z,15.80
2018-09-01T22:05:16.147Z,15.90
2018-09-01T22:07:44.779Z,15.80
2018-09-01T22:10:13.080Z,15.70
2018-09-01T22:12:41.447Z,15.80
2018-09-01T22:15:09.795Z,15.80
2018-09-01T22:17:38.104Z,15.70
2018-09-01T22:20:06.427Z,15.50
2018-09-01T22:22:34.748Z,15.40
2018-09-01T22:25:03.143Z,15.30
2018-09-01T22:27:31.500Z,15.20
2018-09-01T22:29:59.827Z,15.20
2018-09-01T22:32:28.131Z,15.20
2018-09-01T22:34:56.511Z,15.20
2018-09-01T22:37:24.813Z,15.00
2018-09-01T22:39:53.136Z,15.00
2018-09-01T22:42:21.431Z,14.90
2018-09-01T22:44:49.752Z,14.80
2018-09-01T22:47:21.488Z,14.90
2018-09-01T22:49:49.804Z,15.10
2018-09-01T22:52:18.112Z,15.20
2018-09-01T22:54:46.433Z,15.30
2018-09-01T22:57:14.736Z,15.40
2018-09-01T22:59:43.057Z,15.30
2018-09-01T23:02:11.355Z,15.50
2018-09-01T23:04:39.664Z,15.50
2018-09-01T23:07:07.994Z,15.50
2018-09-01T23:09:36.324Z,15.50
2018-09-01T23:12:04.640Z,15.50
2018-09-01T23:14:32.955Z,15.60
2018-09-01T23:17:01.281Z,15.50
2018-09-01T23:19:29.665Z,15.20
2018-09-01T23:21:58.008Z,15.00
2018-09-01T23:24:26.344Z,14.90
2018-09-01T23:26:54.653Z,15.00
2018-09-01T23:29:22.995Z,15.00
2018-09-01T23:31:51.304Z,15.00
2018-09-01T23:34:19.619Z,15.00
2018-09-01T23:36:48.020Z,14.90
2018-09-01T23:39:16.344Z,14.90
2018-09-01T23:41:44.829Z,14.90
2018-09-01T23:44:13.161Z,14.90
2018-09-01T23:46:41.468Z,14.80
2018-09-01T23:49:09.792Z,14.90
2018-09-01T23:51:38.112Z,15.00
2018-09-01T23:54:06.548Z,15.20
2018-09-01T23:56:34.960Z,15.10
2018-09-01T23:59:03.293Z,15.20
